sensor_id;sensor_type;location;lat;lon;timestamp;pressure;altitude;pressure_sealevel;temperature;humidity
3132;BME280;62090;52.330;9.104;2024-02-16T00:00:49;100637.84;;;13.93;95.20
3132;BME280;62090;52.330;9.104;2024-02-16T00:03:23;100613.00;;;13.83;94.52
3132;BME280;62090;52.330;9.104;2024-02-16T00:05:54;100621.69;;;13.99;94.27
3132;BME280;62090;52.330;9.104;2024-02-16T00:08:24;100606.19;;;13.85;94.31
3132;BME280;62090;52.330;9.104;2024-02-16T00:10:54;100609.66;;;13.90;94.67
3132;BME280;62090;52.330;9.104;2024-02-16T00:13:25;100617.34;;;13.93;94.45
3132;BME280;62090;52.330;9.104;2024-02-16T00:15:55;100622.41;;;13.87;94.63
3132;BME280;62090;52.330;9.104;2024-02-16T00:18:28;100615.56;;;13.86;94.63
3132;BME280;62090;52.330;9.104;2024-02-16T00:20:59;100618.97;;;13.83;94.40
3132;BME280;62090;52.330;9.104;2024-02-16T00:23:29;100620.69;;;13.86;94.43
3132;BME280;62090;52.330;9.104;2024-02-16T00:26:01;100623.28;;;13.84;94.15
3132;BME280;62090;52.330;9.104;2024-02-16T00:28:34;100548.66;;;13.46;93.46
3132;BME280;62090;52.330;9.104;2024-02-16T00:31:05;100622.44;;;13.88;93.82
3132;BME280;62090;52.330;9.104;2024-02-16T00:33:38;100626.69;;;13.86;94.25
3132;BME280;62090;52.330;9.104;2024-02-16T00:36:09;100600.91;;;13.70;93.89
3132;BME280;62090;52.330;9.104;2024-02-16T00:38:39;100629.25;;;13.85;94.04
3132;BME280;62090;52.330;9.104;2024-02-16T00:41:17;100628.38;;;13.84;93.59
3132;BME280;62090;52.330;9.104;2024-02-16T00:43:47;100589.81;;;13.68;93.54
3132;BME280;62090;52.330;9.104;2024-02-16T00:46:18;100614.69;;;13.81;93.40
3132;BME280;62090;52.330;9.104;2024-02-16T00:48:52;100625.00;;;13.88;93.81
3132;BME280;62090;52.330;9.104;2024-02-16T00:51:23;100611.19;;;13.73;94.13
3132;BME280;62090;52.330;9.104;2024-02-16T00:53:54;100627.47;;;13.81;93.83
3132;BME280;62090;52.330;9.104;2024-02-16T00:56:24;100611.19;;;13.73;93.91
3132;BME280;62090;52.330;9.104;2024-02-16T00:58:54;100624.06;;;13.79;94.01
3132;BME280;62090;52.330;9.104;2024-02-16T01:01:24;100613.75;;;13.71;94.01
3132;BME280;62090;52.330;9.104;2024-02-16T01:03:57;100621.47;;;13.76;93.83
3132;BME280;62090;52.330;9.104;2024-02-16T01:06:28;100611.16;;;13.68;93.69
3132;BME280;62090;52.330;9.104;2024-02-16T01:08:58;100612.03;;;13.72;93.74
3132;BME280;62090;52.330;9.104;2024-02-16T01:11:28;100570.88;;;13.52;93.94
3132;BME280;62090;52.330;9.104;2024-02-16T01:13:58;100574.25;;;13.49;93.39
3132;BME280;62090;52.330;9.104;2024-02-16T01:16:28;100599.09;;;13.60;93.33
3132;BME280;62090;52.330;9.104;2024-02-16T01:19:01;100606.91;;;13.69;94.30
3132;BME280;62090;52.330;9.104;2024-02-16T01:21:34;100612.81;;;13.63;94.03
3132;BME280;62090;52.330;9.104;2024-02-16T01:24:05;100601.72;;;13.63;94.28
3132;BME280;62090;52.330;9.104;2024-02-16T01:26:36;100598.28;;;13.61;94.51
3132;BME280;62090;52.330;9.104;2024-02-16T01:29:06;100542.38;;;13.17;94.29
3132;BME280;62090;52.330;9.104;2024-02-16T01:31:36;100596.41;;;13.44;93.78
3132;BME280;62090;52.330;9.104;2024-02-16T01:34:09;100600.69;;;13.45;93.84
3132;BME280;62090;52.330;9.104;2024-02-16T01:36:39;100593.72;;;13.34;94.72
3132;BME280;62090;52.330;9.104;2024-02-16T01:39:09;100562.00;;;13.18;95.29
3132;BME280;62090;52.330;9.104;2024-02-16T01:41:39;100563.69;;;13.16;95.68
3132;BME280;62090;52.330;9.104;2024-02-16T01:44:10;100574.84;;;13.23;95.99
3132;BME280;62090;52.330;9.104;2024-02-16T01:46:40;100574.84;;;13.24;96.34
3132;BME280;62090;52.330;9.104;2024-02-16T01:49:14;100568.84;;;13.19;96.38
3132;BME280;62090;52.330;9.104;2024-02-16T01:51:44;100573.09;;;13.19;96.41
3132;BME280;62090;52.330;9.104;2024-02-16T01:54:16;100583.44;;;13.29;96.21
3132;BME280;62090;52.330;9.104;2024-02-16T01:56:47;100586.94;;;13.36;95.65
3132;BME280;62090;52.330;9.104;2024-02-16T01:59:17;100574.91;;;13.29;95.11
3132;BME280;62090;52.330;9.104;2024-02-16T02:01:48;100587.72;;;13.30;95.65
3132;BME280;62090;52.330;9.104;2024-02-16T02:04:21;100588.53;;;13.28;96.08
3132;BME280;62090;52.330;9.104;2024-02-16T02:06:51;100585.13;;;13.29;96.02
3132;BME280;62090;52.330;9.104;2024-02-16T02:09:22;100580.00;;;13.27;96.10
3132;BME280;62090;52.330;9.104;2024-02-16T02:11:52;100573.97;;;13.22;96.18
3132;BME280;62090;52.330;9.104;2024-02-16T02:14:22;100565.38;;;13.17;95.95
3132;BME280;62090;52.330;9.104;2024-02-16T02:16:53;100540.50;;;13.04;96.08
3132;BME280;62090;52.330;9.104;2024-02-16T02:19:28;100519.91;;;12.93;96.56
3132;BME280;62090;52.330;9.104;2024-02-16T02:22:00;100562.72;;;13.09;96.73
3132;BME280;62090;52.330;9.104;2024-02-16T02:24:33;100562.81;;;13.14;95.78
3132;BME280;62090;52.330;9.104;2024-02-16T02:27:03;100562.72;;;13.08;96.41
3132;BME280;62090;52.330;9.104;2024-02-16T02:29:33;100536.19;;;13.00;96.02
3132;BME280;62090;52.330;9.104;2024-02-16T02:32:04;100532.78;;;13.01;96.11
3132;BME280;62090;52.330;9.104;2024-02-16T02:34:34;100544.78;;;13.08;96.89
3132;BME280;62090;52.330;9.104;2024-02-16T02:37:06;100543.19;;;13.13;96.07
3132;BME280;62090;52.330;9.104;2024-02-16T02:39:39;100540.66;;;13.18;96.33
3132;BME280;62090;52.330;9.104;2024-02-16T02:42:09;100542.38;;;13.17;96.38
3132;BME280;62090;52.330;9.104;2024-02-16T02:44:39;100536.44;;;13.23;96.14
3132;BME280;62090;52.330;9.104;2024-02-16T02:47:16;100445.50;;;12.70;95.81
3132;BME280;62090;52.330;9.104;2024-02-16T02:49:46;100538.19;;;13.24;95.35
3132;BME280;62090;52.330;9.104;2024-02-16T02:52:17;100539.88;;;13.23;95.44
3132;BME280;62090;52.330;9.104;2024-02-16T02:54:49;100529.69;;;13.29;95.42
3132;BME280;62090;52.330;9.104;2024-02-16T02:57:20;100433.63;;;12.76;94.86
3132;BME280;62090;52.330;9.104;2024-02-16T02:59:50;100437.03;;;12.76;94.95
3132;BME280;62090;52.330;9.104;2024-02-16T03:02:20;100528.03;;;13.34;94.77
3132;BME280;62090;52.330;9.104;2024-02-16T03:04:50;100531.50;;;13.36;94.57
3132;BME280;62090;52.330;9.104;2024-02-16T03:07:20;100535.75;;;13.39;93.90
3132;BME280;62090;52.330;9.104;2024-02-16T03:09:53;100524.66;;;13.38;93.86
3132;BME280;62090;52.330;9.104;2024-02-16T03:12:23;100516.09;;;13.33;93.68
3132;BME280;62090;52.330;9.104;2024-02-16T03:14:53;100527.13;;;13.28;93.17
3132;BME280;62090;52.330;9.104;2024-02-16T03:17:23;100516.81;;;13.20;93.20
3132;BME280;62090;52.330;9.104;2024-02-16T03:19:54;100528.78;;;13.21;93.41
3132;BME280;62090;52.330;9.104;2024-02-16T03:22:24;100487.59;;;13.01;93.48
3132;BME280;62090;52.330;9.104;2024-02-16T03:24:57;100514.28;;;13.23;93.60
3132;BME280;62090;52.330;9.104;2024-02-16T03:27:27;100509.16;;;13.20;93.67
3132;BME280;62090;52.330;9.104;2024-02-16T03:29:57;100483.41;;;13.08;92.81
3132;BME280;62090;52.330;9.104;2024-02-16T03:32:27;100507.50;;;13.25;93.01
3132;BME280;62090;52.330;9.104;2024-02-16T03:34:58;100502.31;;;13.22;93.17
3132;BME280;62090;52.330;9.104;2024-02-16T03:37:28;100480.84;;;13.08;92.19
3132;BME280;62090;52.330;9.104;2024-02-16T03:40:01;100509.22;;;13.26;92.04
3132;BME280;62090;52.330;9.104;2024-02-16T03:42:31;100480.94;;;13.14;92.13
3132;BME280;62090;52.330;9.104;2024-02-16T03:45:02;100515.28;;;13.36;92.58
3132;BME280;62090;52.330;9.104;2024-02-16T03:47:33;100507.56;;;13.34;92.21
3132;BME280;62090;52.330;9.104;2024-02-16T03:50:04;100510.22;;;13.43;91.89
3132;BME280;62090;52.330;9.104;2024-02-16T03:52:34;100511.91;;;13.41;91.74
3132;BME280;62090;52.330;9.104;2024-02-16T03:55:07;100487.91;;;13.30;91.68
3132;BME280;62090;52.330;9.104;2024-02-16T03:57:39;100510.25;;;13.46;91.32
3132;BME280;62090;52.330;9.104;2024-02-16T04:00:10;100512.81;;;13.49;91.47
3132;BME280;62090;52.330;9.104;2024-02-16T04:02:40;100499.97;;;13.42;91.59
3132;BME280;62090;52.330;9.104;2024-02-16T04:05:10;100500.72;;;13.33;91.61
3132;BME280;62090;52.330;9.104;2024-02-16T04:07:40;100494.75;;;13.33;90.88
3132;BME280;62090;52.330;9.104;2024-02-16T04:10:13;100490.41;;;13.24;91.30
3132;BME280;62090;52.330;9.104;2024-02-16T04:12:43;100494.72;;;13.28;91.45
3132;BME280;62090;52.330;9.104;2024-02-16T04:15:14;100507.56;;;13.34;91.81
3132;BME280;62090;52.330;9.104;2024-02-16T04:17:44;100501.69;;;13.41;90.84
3132;BME280;62090;52.330;9.104;2024-02-16T04:20:15;100476.00;;;13.32;90.84
3132;BME280;62090;52.330;9.104;2024-02-16T04:22:46;100495.78;;;13.50;90.58
3132;BME280;62090;52.330;9.104;2024-02-16T04:25:18;100485.50;;;13.47;89.99
3132;BME280;62090;52.330;9.104;2024-02-16T04:27:49;100474.41;;;13.45;89.04
3132;BME280;62090;52.330;9.104;2024-02-16T04:30:19;100496.66;;;13.55;88.88
3132;BME280;62090;52.330;9.104;2024-02-16T04:32:50;100484.69;;;13.54;88.97
3132;BME280;62090;52.330;9.104;2024-02-16T04:35:20;100416.03;;;13.04;88.59
3132;BME280;62090;52.330;9.104;2024-02-16T04:37:50;100503.53;;;13.58;88.23
3132;BME280;62090;52.330;9.104;2024-02-16T04:40:23;100492.34;;;13.49;88.07
3132;BME280;62090;52.330;9.104;2024-02-16T04:42:53;100489.78;;;13.49;87.94
3132;BME280;62090;52.330;9.104;2024-02-16T04:45:24;100512.00;;;13.53;88.08
3132;BME280;62090;52.330;9.104;2024-02-16T04:47:57;100505.97;;;13.48;88.40
3132;BME280;62090;52.330;9.104;2024-02-16T04:50:27;100501.63;;;13.38;88.89
3132;BME280;62090;52.330;9.104;2024-02-16T04:52:57;100439.75;;;12.90;89.11
3132;BME280;62090;52.330;9.104;2024-02-16T04:55:31;100493.88;;;13.26;89.25
3132;BME280;62090;52.330;9.104;2024-02-16T04:58:01;100472.38;;;13.12;89.09
3132;BME280;62090;52.330;9.104;2024-02-16T05:00:31;100513.56;;;13.35;88.71
3132;BME280;62090;52.330;9.104;2024-02-16T05:03:02;100507.63;;;13.39;88.66
3132;BME280;62090;52.330;9.104;2024-02-16T05:05:32;100489.59;;;13.27;88.72
3132;BME280;62090;52.330;9.104;2024-02-16T05:08:03;100494.84;;;13.43;88.95
3132;BME280;62090;52.330;9.104;2024-02-16T05:10:36;100487.16;;;13.37;88.66
3132;BME280;62090;52.330;9.104;2024-02-16T05:13:07;100494.03;;;13.49;88.61
3132;BME280;62090;52.330;9.104;2024-02-16T05:15:39;100471.78;;;13.37;88.66
3132;BME280;62090;52.330;9.104;2024-02-16T05:18:09;100482.13;;;13.48;88.13
3132;BME280;62090;52.330;9.104;2024-02-16T05:20:40;100477.00;;;13.49;88.51
3132;BME280;62090;52.330;9.104;2024-02-16T05:23:10;100484.69;;;13.54;88.51
3132;BME280;62090;52.330;9.104;2024-02-16T05:25:43;100471.03;;;13.50;87.99
3132;BME280;62090;52.330;9.104;2024-02-16T05:28:13;100457.31;;;13.44;87.85
3132;BME280;62090;52.330;9.104;2024-02-16T05:30:43;100455.66;;;13.47;87.78
3132;BME280;62090;52.330;9.104;2024-02-16T05:33:13;100459.09;;;13.51;87.37
3132;BME280;62090;52.330;9.104;2024-02-16T05:35:43;100474.56;;;13.66;87.52
3132;BME280;62090;52.330;9.104;2024-02-16T05:38:18;100473.69;;;13.63;87.37
3132;BME280;62090;52.330;9.104;2024-02-16T05:41:02;100476.28;;;13.70;86.81
3132;BME280;62090;52.330;9.104;2024-02-16T05:43:32;100469.44;;;13.66;87.13
3132;BME280;62090;52.330;9.104;2024-02-16T05:46:03;100441.94;;;13.41;86.63
3132;BME280;62090;52.330;9.104;2024-02-16T05:48:33;100456.47;;;13.43;86.90
3132;BME280;62090;52.330;9.104;2024-02-16T05:51:06;100457.38;;;13.50;86.80
3132;BME280;62090;52.330;9.104;2024-02-16T05:53:39;100462.53;;;13.56;86.72
3132;BME280;62090;52.330;9.104;2024-02-16T05:56:12;100461.66;;;13.54;87.14
3132;BME280;62090;52.330;9.104;2024-02-16T05:58:42;100463.41;;;13.57;87.07
3132;BME280;62090;52.330;9.104;2024-02-16T06:01:12;100471.09;;;13.57;87.16
3132;BME280;62090;52.330;9.104;2024-02-16T06:03:43;100451.31;;;13.40;86.99
3132;BME280;62090;52.330;9.104;2024-02-16T06:06:13;100477.88;;;13.54;87.04
3132;BME280;62090;52.330;9.104;2024-02-16T06:08:43;100465.78;;;13.38;87.49
3132;BME280;62090;52.330;9.104;2024-02-16T06:11:16;100420.50;;;13.28;87.30
3132;BME280;62090;52.330;9.104;2024-02-16T06:13:46;100459.91;;;13.45;87.06
3132;BME280;62090;52.330;9.104;2024-02-16T06:16:16;100465.09;;;13.54;87.14
3132;BME280;62090;52.330;9.104;2024-02-16T06:18:47;100482.25;;;13.63;86.87
3132;BME280;62090;52.330;9.104;2024-02-16T06:21:17;100472.81;;;13.61;86.86
3132;BME280;62090;52.330;9.104;2024-02-16T06:23:47;100396.53;;;13.17;87.13
3132;BME280;62090;52.330;9.104;2024-02-16T06:26:20;100443.78;;;13.57;85.73
3132;BME280;62090;52.330;9.104;2024-02-16T06:28:50;100453.13;;;13.53;85.63
3132;BME280;62090;52.330;9.104;2024-02-16T06:31:21;100435.16;;;13.43;85.85
3132;BME280;62090;52.330;9.104;2024-02-16T06:33:51;100480.56;;;13.70;86.04
3132;BME280;62090;52.330;9.104;2024-02-16T06:36:22;100463.28;;;13.44;85.88
3132;BME280;62090;52.330;9.104;2024-02-16T06:38:52;100468.50;;;13.55;85.86
3132;BME280;62090;52.330;9.104;2024-02-16T06:41:25;100477.88;;;13.51;86.57
3132;BME280;62090;52.330;9.104;2024-02-16T06:43:55;100472.66;;;13.41;87.01
3132;BME280;62090;52.330;9.104;2024-02-16T06:46:25;100453.75;;;13.25;87.19
3132;BME280;62090;52.330;9.104;2024-02-16T06:48:56;100490.50;;;13.33;87.79
3132;BME280;62090;52.330;9.104;2024-02-16T06:51:26;100499.16;;;13.43;88.11
3132;BME280;62090;52.330;9.104;2024-02-16T06:53:57;100457.16;;;13.21;87.43
3132;BME280;62090;52.330;9.104;2024-02-16T06:56:29;100496.59;;;13.49;88.11
3132;BME280;62090;52.330;9.104;2024-02-16T06:59:00;100510.25;;;13.46;88.11
3132;BME280;62090;52.330;9.104;2024-02-16T07:01:30;100508.53;;;13.48;88.02
3132;BME280;62090;52.330;9.104;2024-02-16T07:04:00;100487.97;;;13.36;88.32
3132;BME280;62090;52.330;9.104;2024-02-16T07:06:31;100516.28;;;13.51;87.97
3132;BME280;62090;52.330;9.104;2024-02-16T07:09:02;100520.56;;;13.52;88.22
3132;BME280;62090;52.330;9.104;2024-02-16T07:11:35;100516.31;;;13.58;88.21
3132;BME280;62090;52.330;9.104;2024-02-16T07:14:05;100478.59;;;13.35;88.50
3132;BME280;62090;52.330;9.104;2024-02-16T07:16:36;100493.28;;;13.59;87.72
3132;BME280;62090;52.330;9.104;2024-02-16T07:19:06;100472.66;;;13.41;88.58
3132;BME280;62090;52.330;9.104;2024-02-16T07:21:36;100506.94;;;13.60;88.12
3132;BME280;62090;52.330;9.104;2024-02-16T07:24:07;100496.69;;;13.57;88.49
3132;BME280;62090;52.330;9.104;2024-02-16T07:26:40;100511.28;;;13.70;88.69
3132;BME280;62090;52.330;9.104;2024-02-16T07:29:10;100524.97;;;13.69;88.37
3132;BME280;62090;52.330;9.104;2024-02-16T07:31:44;100438.34;;;13.16;88.34
3132;BME280;62090;52.330;9.104;2024-02-16T07:34:14;100525.00;;;13.76;88.23
3132;BME280;62090;52.330;9.104;2024-02-16T07:36:44;100479.50;;;13.43;88.43
3132;BME280;62090;52.330;9.104;2024-02-16T07:39:14;100461.53;;;13.36;88.30
3132;BME280;62090;52.330;9.104;2024-02-16T07:41:47;100482.19;;;13.57;88.99
3132;BME280;62090;52.330;9.104;2024-02-16T07:44:17;100519.97;;;13.88;87.89
3132;BME280;62090;52.330;9.104;2024-02-16T07:46:47;100513.06;;;13.78;88.42
3132;BME280;62090;52.330;9.104;2024-02-16T07:49:19;100497.66;;;13.71;89.03
3132;BME280;62090;52.330;9.104;2024-02-16T07:51:49;100513.97;;;13.86;89.14
3132;BME280;62090;52.330;9.104;2024-02-16T07:54:19;100510.56;;;13.84;89.38
3132;BME280;62090;52.330;9.104;2024-02-16T07:56:52;100420.63;;;13.42;89.10
3132;BME280;62090;52.330;9.104;2024-02-16T07:59:25;100526.94;;;14.06;89.09
3132;BME280;62090;52.330;9.104;2024-02-16T08:01:55;100530.38;;;14.08;88.71
3132;BME280;62090;52.330;9.104;2024-02-16T08:04:25;100524.38;;;14.08;88.83
3132;BME280;62090;52.330;9.104;2024-02-16T08:06:55;100534.72;;;14.20;88.37
3132;BME280;62090;52.330;9.104;2024-02-16T08:09:28;100512.44;;;14.10;87.64
3132;BME280;62090;52.330;9.104;2024-02-16T08:12:01;100544.16;;;14.28;87.40
3132;BME280;62090;52.330;9.104;2024-02-16T08:14:34;100525.31;;;14.19;87.71
3132;BME280;62090;52.330;9.104;2024-02-16T08:17:04;100537.28;;;14.23;88.36
3132;BME280;62090;52.330;9.104;2024-02-16T08:19:51;100545.88;;;14.26;88.72
3132;BME280;62090;52.330;9.104;2024-02-16T08:22:22;100504.78;;;14.14;88.44
3132;BME280;62090;52.330;9.104;2024-02-16T08:24:52;100532.28;;;14.36;88.11
3132;BME280;62090;52.330;9.104;2024-02-16T08:27:25;100460.25;;;13.94;88.09
3132;BME280;62090;52.330;9.104;2024-02-16T08:29:55;100524.53;;;14.33;87.97
3132;BME280;62090;52.330;9.104;2024-02-16T08:32:25;100511.72;;;14.35;87.82
3132;BME280;62090;52.330;9.104;2024-02-16T08:34:56;100518.69;;;14.53;87.95
3132;BME280;62090;52.330;9.104;2024-02-16T08:37:27;100474.09;;;14.29;87.60
3132;BME280;62090;52.330;9.104;2024-02-16T08:39:57;100442.41;;;14.12;87.64
3132;BME280;62090;52.330;9.104;2024-02-16T08:42:30;100511.91;;;14.65;87.52
3132;BME280;62090;52.330;9.104;2024-02-16T08:45:01;100499.94;;;14.67;87.14
3132;BME280;62090;52.330;9.104;2024-02-16T08:47:31;100512.81;;;14.78;86.60
3132;BME280;62090;52.330;9.104;2024-02-16T08:50:01;100529.09;;;14.80;86.15
3132;BME280;62090;52.330;9.104;2024-02-16T08:52:32;100519.66;;;14.74;86.69
3132;BME280;62090;52.330;9.104;2024-02-16T08:55:02;100522.22;;;14.79;86.36
3132;BME280;62090;52.330;9.104;2024-02-16T08:57:35;100447.72;;;14.41;86.57
3132;BME280;62090;52.330;9.104;2024-02-16T09:00:06;100517.94;;;14.81;86.35
3132;BME280;62090;52.330;9.104;2024-02-16T09:02:37;100525.63;;;14.81;86.19
3132;BME280;62090;52.330;9.104;2024-02-16T09:05:07;100522.25;;;14.87;86.34
3132;BME280;62090;52.330;9.104;2024-02-16T09:07:38;100483.72;;;14.68;86.56
3132;BME280;62090;52.330;9.104;2024-02-16T09:10:09;100510.28;;;14.84;86.88
3132;BME280;62090;52.330;9.104;2024-02-16T09:12:42;100511.97;;;14.79;87.07
3132;BME280;62090;52.330;9.104;2024-02-16T09:15:12;100541.91;;;14.88;87.17
3132;BME280;62090;52.330;9.104;2024-02-16T09:17:42;100531.59;;;14.75;87.32
3132;BME280;62090;52.330;9.104;2024-02-16T09:20:12;100545.34;;;14.84;87.65
3132;BME280;62090;52.330;9.104;2024-02-16T09:22:43;100547.03;;;14.83;87.58
3132;BME280;62090;52.330;9.104;2024-02-16T09:25:14;100557.28;;;14.78;87.98
3132;BME280;62090;52.330;9.104;2024-02-16T09:27:47;100557.25;;;14.75;88.16
3132;BME280;62090;52.330;9.104;2024-02-16T09:30:17;100553.88;;;14.75;88.53
3132;BME280;62090;52.330;9.104;2024-02-16T09:32:48;100558.13;;;14.77;88.32
3132;BME280;62090;52.330;9.104;2024-02-16T09:35:19;100543.56;;;14.67;88.89
3132;BME280;62090;52.330;9.104;2024-02-16T09:37:49;100559.88;;;14.80;89.23
3132;BME280;62090;52.330;9.104;2024-02-16T09:40:19;100560.75;;;14.85;88.80
3132;BME280;62090;52.330;9.104;2024-02-16T09:42:52;100521.31;;;14.66;88.93
3132;BME280;62090;52.330;9.104;2024-02-16T09:45:22;100553.00;;;14.79;89.32
3132;BME280;62090;52.330;9.104;2024-02-16T09:47:54;100557.31;;;14.86;89.54
3132;BME280;62090;52.330;9.104;2024-02-16T09:50:33;100564.16;;;14.92;89.50
3132;BME280;62090;52.330;9.104;2024-02-16T09:53:04;100494.75;;;14.51;89.15
3132;BME280;62090;52.330;9.104;2024-02-16T09:55:35;100566.78;;;14.96;89.26
3132;BME280;62090;52.330;9.104;2024-02-16T09:58:08;100553.91;;;14.93;89.12
3132;BME280;62090;52.330;9.104;2024-02-16T10:00:48;100561.66;;;14.96;89.03
3132;BME280;62090;52.330;9.104;2024-02-16T10:03:23;100583.03;;;15.03;90.05
3132;BME280;62090;52.330;9.104;2024-02-16T10:06:04;100532.50;;;14.84;89.64
3132;BME280;62090;52.330;9.104;2024-02-16T10:08:46;100520.47;;;14.69;89.72
3132;BME280;62090;52.330;9.104;2024-02-16T10:11:17;100588.19;;;15.06;90.12
3132;BME280;62090;52.330;9.104;2024-02-16T10:13:59;100561.66;;;14.96;89.36
3132;BME280;62090;52.330;9.104;2024-02-16T10:16:31;100535.06;;;14.82;89.95
3132;BME280;62090;52.330;9.104;2024-02-16T10:19:04;100584.78;;;15.10;90.16
3132;BME280;62090;52.330;9.104;2024-02-16T10:21:35;100595.06;;;15.17;90.52
3132;BME280;62090;52.330;9.104;2024-02-16T10:24:07;100573.66;;;15.09;91.03
3132;BME280;62090;52.330;9.104;2024-02-16T10:26:38;100575.41;;;15.16;90.80
3132;BME280;62090;52.330;9.104;2024-02-16T10:29:11;100583.16;;;15.41;90.85
3132;BME280;62090;52.330;9.104;2024-02-16T10:31:42;100600.31;;;15.55;90.44
3132;BME280;62090;52.330;9.104;2024-02-16T10:34:12;100599.47;;;15.58;89.78
3132;BME280;62090;52.330;9.104;2024-02-16T10:36:44;100613.19;;;15.66;89.36
3132;BME280;62090;52.330;9.104;2024-02-16T10:39:14;100572.03;;;15.45;88.23
3132;BME280;62090;52.330;9.104;2024-02-16T10:41:46;100609.75;;;15.67;88.14
3132;BME280;62090;52.330;9.104;2024-02-16T10:44:21;100552.31;;;15.27;87.56
3132;BME280;62090;52.330;9.104;2024-02-16T10:46:51;100553.19;;;15.32;87.63
3132;BME280;62090;52.330;9.104;2024-02-16T10:49:23;100570.31;;;15.44;87.57
3132;BME280;62090;52.330;9.104;2024-02-16T10:51:56;100609.78;;;15.82;86.96
3132;BME280;62090;52.330;9.104;2024-02-16T10:54:30;100608.91;;;15.97;87.49
3132;BME280;62090;52.330;9.104;2024-02-16T10:57:07;100589.25;;;16.00;86.38
3132;BME280;62090;52.330;9.104;2024-02-16T10:59:41;100614.06;;;16.18;85.32
3132;BME280;62090;52.330;9.104;2024-02-16T11:02:13;100597.78;;;16.27;85.61
3132;BME280;62090;52.330;9.104;2024-02-16T11:04:45;100608.91;;;16.42;84.15
3132;BME280;62090;52.330;9.104;2024-02-16T11:07:18;100596.91;;;16.49;83.70
3132;BME280;62090;52.330;9.104;2024-02-16T11:09:50;100608.91;;;16.64;83.92
3132;BME280;62090;52.330;9.104;2024-02-16T11:12:21;100570.31;;;16.53;83.64
3132;BME280;62090;52.330;9.104;2024-02-16T11:14:56;100616.56;;;16.85;82.72
3132;BME280;62090;52.330;9.104;2024-02-16T11:17:28;100607.13;;;16.76;81.82
3132;BME280;62090;52.330;9.104;2024-02-16T11:20:00;100606.31;;;16.70;81.91
3132;BME280;62090;52.330;9.104;2024-02-16T11:22:30;100618.25;;;16.81;81.04
3132;BME280;62090;52.330;9.104;2024-02-16T11:25:00;100608.03;;;16.69;81.36
3132;BME280;62090;52.330;9.104;2024-02-16T11:27:31;100614.91;;;16.69;82.11
3132;BME280;62090;52.330;9.104;2024-02-16T11:30:05;100616.59;;;16.71;82.73
3132;BME280;62090;52.330;9.104;2024-02-16T11:32:36;100626.00;;;16.83;82.13
3132;BME280;62090;52.330;9.104;2024-02-16T11:35:08;100605.44;;;16.66;82.47
3132;BME280;62090;52.330;9.104;2024-02-16T11:37:38;100631.16;;;16.84;81.69
3132;BME280;62090;52.330;9.104;2024-02-16T11:40:11;100494.13;;;16.11;82.26
3132;BME280;62090;52.330;9.104;2024-02-16T11:42:42;100643.97;;;16.94;82.10
3132;BME280;62090;52.330;9.104;2024-02-16T11:45:16;100645.69;;;16.95;81.82
3132;BME280;62090;52.330;9.104;2024-02-16T11:47:47;100612.28;;;16.81;81.90
3132;BME280;62090;52.330;9.104;2024-02-16T11:50:17;100649.13;;;17.00;82.03
3132;BME280;62090;52.330;9.104;2024-02-16T11:52:48;100640.53;;;16.93;82.79
3132;BME280;62090;52.330;9.104;2024-02-16T11:55:19;100614.84;;;16.79;81.78
3132;BME280;62090;52.330;9.104;2024-02-16T11:57:49;100602.88;;;16.75;81.31
3132;BME280;62090;52.330;9.104;2024-02-16T12:00:24;100644.88;;;16.91;81.91
3132;BME280;62090;52.330;9.104;2024-02-16T12:03:00;100649.13;;;16.95;81.93
3132;BME280;62090;52.330;9.104;2024-02-16T12:05:31;100650.84;;;16.95;82.18
3132;BME280;62090;52.330;9.104;2024-02-16T12:08:01;100641.44;;;16.84;82.25
3132;BME280;62090;52.330;9.104;2024-02-16T12:10:31;100651.72;;;16.83;83.06
3132;BME280;62090;52.330;9.104;2024-02-16T12:13:01;100651.75;;;16.80;83.09
3132;BME280;62090;52.330;9.104;2024-02-16T12:15:37;100643.22;;;16.64;84.09
3132;BME280;62090;52.330;9.104;2024-02-16T12:18:08;100650.91;;;16.69;84.13
3132;BME280;62090;52.330;9.104;2024-02-16T12:20:38;100614.91;;;16.43;83.66
3132;BME280;62090;52.330;9.104;2024-02-16T12:23:11;100652.63;;;16.48;84.10
3132;BME280;62090;52.330;9.104;2024-02-16T12:25:42;100636.34;;;16.48;84.38
3132;BME280;62090;52.330;9.104;2024-02-16T12:28:12;100656.06;;;16.63;84.75
3132;BME280;62090;52.330;9.104;2024-02-16T12:30:45;100650.91;;;16.63;84.63
3132;BME280;62090;52.330;9.104;2024-02-16T12:33:15;100638.91;;;16.45;85.13
3132;BME280;62090;52.330;9.104;2024-02-16T12:35:45;100654.38;;;16.59;84.42
3132;BME280;62090;52.330;9.104;2024-02-16T12:38:15;100666.38;;;16.60;85.16
3132;BME280;62090;52.330;9.104;2024-02-16T12:40:46;100662.91;;;16.61;85.17
3132;BME280;62090;52.330;9.104;2024-02-16T12:43:17;100666.34;;;16.69;85.64
3132;BME280;62090;52.330;9.104;2024-02-16T12:45:50;100661.22;;;16.61;86.18
3132;BME280;62090;52.330;9.104;2024-02-16T12:48:20;100657.78;;;16.47;86.91
3132;BME280;62090;52.330;9.104;2024-02-16T12:50:50;100647.50;;;16.44;87.14
3132;BME280;62090;52.330;9.104;2024-02-16T12:53:20;100644.03;;;16.53;87.13
3132;BME280;62090;52.330;9.104;2024-02-16T12:55:51;100674.88;;;16.81;86.55
3132;BME280;62090;52.330;9.104;2024-02-16T12:58:22;100674.06;;;16.78;86.68
3132;BME280;62090;52.330;9.104;2024-02-16T13:00:54;100672.34;;;16.78;86.15
3132;BME280;62090;52.330;9.104;2024-02-16T13:03:38;100643.19;;;16.61;85.73
3132;BME280;62090;52.330;9.104;2024-02-16T13:06:08;100674.03;;;16.76;85.94
3132;BME280;62090;52.330;9.104;2024-02-16T13:08:39;100678.34;;;16.68;86.50
3132;BME280;62090;52.330;9.104;2024-02-16T13:11:09;100661.22;;;16.64;86.68
3132;BME280;62090;52.330;9.104;2024-02-16T13:13:39;100652.66;;;16.65;86.06
3132;BME280;62090;52.330;9.104;2024-02-16T13:16:12;100678.34;;;16.77;85.13
3132;BME280;62090;52.330;9.104;2024-02-16T13:18:43;100668.06;;;16.74;85.13
3132;BME280;62090;52.330;9.104;2024-02-16T13:21:13;100672.31;;;16.84;84.42